ENCN/KRS METAR and TAF weather

Enter ICAO airport designator
Station Type Date Time Source
ENCN METAR 2021/08/04 20:20 UTC NOAA

ENCN 042020Z AUTO 21007KT 9999 NCD 14/11 Q1013


Station Type Date Time Source
ENCN Decoded METAR 2021/08/04 20:20 UTC NOAA

Kristiansand / Kjevik, Norway (ENCN) 58-12N 008-05E 17M
Aug 04, 2021 - 04:20 PM EDT / 2021.08.04 2020 UTC
Wind: from the SSW (210 degrees) at 8 MPH (7 KT):0
Visibility: greater than 7 mile(s):0
Temperature: 57 F (14 C)
Dew Point: 51 F (11 C)
Relative Humidity: 82%
Pressure (altimeter): 29.91 in. Hg (1013 hPa)
ob: ENCN 042020Z AUTO 21007KT 9999 NCD 14/11 Q1013
cycle: 20

Station Type Date Time Source
ENCN TAF 2016/05/06 12:39 UTC NOAA

TAF TAF ENCN 061100Z 0612/0712 14008KT 9999 FEW040

Example: see airport list